sensor_id;sensor_type;location;lat;lon;timestamp;temperature;humidity
30069;DHT22;16894;49.456;10.644;2023-10-31T00:00:10;11.80;80.30
30069;DHT22;16894;49.456;10.644;2023-10-31T00:02:36;11.70;79.60
30069;DHT22;16894;49.456;10.644;2023-10-31T00:05:02;11.70;78.60
30069;DHT22;16894;49.456;10.644;2023-10-31T00:07:28;11.70;78.10
30069;DHT22;16894;49.456;10.644;2023-10-31T00:09:54;11.60;77.70
30069;DHT22;16894;49.456;10.644;2023-10-31T00:12:20;11.60;77.40
30069;DHT22;16894;49.456;10.644;2023-10-31T00:14:46;11.60;77.40
30069;DHT22;16894;49.456;10.644;2023-10-31T00:17:11;11.60;77.50
30069;DHT22;16894;49.456;10.644;2023-10-31T00:19:37;11.60;77.50
30069;DHT22;16894;49.456;10.644;2023-10-31T00:22:03;11.60;77.80
30069;DHT22;16894;49.456;10.644;2023-10-31T00:24:29;11.60;77.80
30069;DHT22;16894;49.456;10.644;2023-10-31T00:26:55;11.60;77.80
30069;DHT22;16894;49.456;10.644;2023-10-31T00:29:20;11.50;77.50
30069;DHT22;16894;49.456;10.644;2023-10-31T00:31:47;11.50;77.40
30069;DHT22;16894;49.456;10.644;2023-10-31T00:34:13;11.50;77.30
30069;DHT22;16894;49.456;10.644;2023-10-31T00:36:39;11.40;77.10
30069;DHT22;16894;49.456;10.644;2023-10-31T00:39:04;11.40;77.20
30069;DHT22;16894;49.456;10.644;2023-10-31T00:41:30;11.40;77.40
30069;DHT22;16894;49.456;10.644;2023-10-31T00:43:56;11.40;76.80
30069;DHT22;16894;49.456;10.644;2023-10-31T00:46:22;11.40;77.20
30069;DHT22;16894;49.456;10.644;2023-10-31T00:48:48;11.40;77.50
30069;DHT22;16894;49.456;10.644;2023-10-31T00:51:13;11.40;77.50
30069;DHT22;16894;49.456;10.644;2023-10-31T00:53:39;11.40;77.30
30069;DHT22;16894;49.456;10.644;2023-10-31T00:56:05;11.40;77.50
30069;DHT22;16894;49.456;10.644;2023-10-31T00:58:31;11.40;77.40
30069;DHT22;16894;49.456;10.644;2023-10-31T01:00:57;11.40;78.00
30069;DHT22;16894;49.456;10.644;2023-10-31T01:03:23;11.40;78.00
30069;DHT22;16894;49.456;10.644;2023-10-31T01:05:49;11.40;77.00
30069;DHT22;16894;49.456;10.644;2023-10-31T01:08:15;11.40;76.60
30069;DHT22;16894;49.456;10.644;2023-10-31T01:10:41;11.40;75.50
30069;DHT22;16894;49.456;10.644;2023-10-31T01:13:07;11.40;74.80
30069;DHT22;16894;49.456;10.644;2023-10-31T01:15:32;11.40;74.40
30069;DHT22;16894;49.456;10.644;2023-10-31T01:17:58;11.30;73.50
30069;DHT22;16894;49.456;10.644;2023-10-31T01:20:24;11.30;74.60
30069;DHT22;16894;49.456;10.644;2023-10-31T01:22:49;11.40;75.70
30069;DHT22;16894;49.456;10.644;2023-10-31T01:25:15;11.30;73.00
30069;DHT22;16894;49.456;10.644;2023-10-31T01:27:41;11.30;73.30
30069;DHT22;16894;49.456;10.644;2023-10-31T01:30:08;11.30;73.10
30069;DHT22;16894;49.456;10.644;2023-10-31T01:32:34;11.30;72.30
30069;DHT22;16894;49.456;10.644;2023-10-31T01:34:59;11.30;70.50
30069;DHT22;16894;49.456;10.644;2023-10-31T01:37:25;11.30;70.20
30069;DHT22;16894;49.456;10.644;2023-10-31T01:40:12;11.20;68.80
30069;DHT22;16894;49.456;10.644;2023-10-31T01:42:58;11.20;60.20
30069;DHT22;16894;49.456;10.644;2023-10-31T01:45:24;11.20;38.00
30069;DHT22;16894;49.456;10.644;2023-10-31T01:47:50;11.10;43.70
30069;DHT22;16894;49.456;10.644;2023-10-31T01:50:16;11.10;40.50
30069;DHT22;16894;49.456;10.644;2023-10-31T01:52:43;11.10;40.10
30069;DHT22;16894;49.456;10.644;2023-10-31T01:55:09;11.10;34.10
30069;DHT22;16894;49.456;10.644;2023-10-31T01:57:36;11.00;30.00
30069;DHT22;16894;49.456;10.644;2023-10-31T02:00:02;11.00;12.80
30069;DHT22;16894;49.456;10.644;2023-10-31T02:02:30;11.00;18.50
30069;DHT22;16894;49.456;10.644;2023-10-31T02:04:58;11.00;22.00
30069;DHT22;16894;49.456;10.644;2023-10-31T02:07:24;11.00;13.20
30069;DHT22;16894;49.456;10.644;2023-10-31T02:09:50;10.90;16.30
30069;DHT22;16894;49.456;10.644;2023-10-31T02:12:36;11.00;13.10
30069;DHT22;16894;49.456;10.644;2023-10-31T02:15:03;10.90;12.60
30069;DHT22;16894;49.456;10.644;2023-10-31T02:17:29;10.90;17.50
30069;DHT22;16894;49.456;10.644;2023-10-31T02:19:55;10.90;1.00
30069;DHT22;16894;49.456;10.644;2023-10-31T02:22:22;10.90;1.00
30069;DHT22;16894;49.456;10.644;2023-10-31T02:24:48;10.80;1.00
30069;DHT22;16894;49.456;10.644;2023-10-31T02:27:14;10.80;1.00
30069;DHT22;16894;49.456;10.644;2023-10-31T02:29:39;10.80;1.00
30069;DHT22;16894;49.456;10.644;2023-10-31T02:32:05;10.80;1.00
30069;DHT22;16894;49.456;10.644;2023-10-31T02:34:31;10.90;1.00
30069;DHT22;16894;49.456;10.644;2023-10-31T02:37:00;10.80;1.00
30069;DHT22;16894;49.456;10.644;2023-10-31T02:39:26;10.90;1.00
30069;DHT22;16894;49.456;10.644;2023-10-31T02:41:51;10.90;1.00
30069;DHT22;16894;49.456;10.644;2023-10-31T02:44:17;10.80;1.00
30069;DHT22;16894;49.456;10.644;2023-10-31T02:46:43;10.80;1.00
30069;DHT22;16894;49.456;10.644;2023-10-31T02:49:09;10.80;1.00
30069;DHT22;16894;49.456;10.644;2023-10-31T02:51:35;10.80;1.00
30069;DHT22;16894;49.456;10.644;2023-10-31T02:54:01;10.80;1.00
30069;DHT22;16894;49.456;10.644;2023-10-31T02:56:26;10.80;1.00
30069;DHT22;16894;49.456;10.644;2023-10-31T02:58:52;10.70;1.00
30069;DHT22;16894;49.456;10.644;2023-10-31T03:01:18;10.70;1.00
30069;DHT22;16894;49.456;10.644;2023-10-31T03:03:45;10.70;1.00
30069;DHT22;16894;49.456;10.644;2023-10-31T03:06:11;10.70;1.00
30069;DHT22;16894;49.456;10.644;2023-10-31T03:08:37;10.60;1.00
30069;DHT22;16894;49.456;10.644;2023-10-31T03:11:03;10.60;1.00
30069;DHT22;16894;49.456;10.644;2023-10-31T03:13:28;10.60;1.00
30069;DHT22;16894;49.456;10.644;2023-10-31T03:15:54;10.60;1.00
30069;DHT22;16894;49.456;10.644;2023-10-31T03:18:20;10.50;99.90
30069;DHT22;16894;49.456;10.644;2023-10-31T03:20:46;10.50;1.00
30069;DHT22;16894;49.456;10.644;2023-10-31T03:23:12;10.50;99.90
30069;DHT22;16894;49.456;10.644;2023-10-31T03:25:38;10.40;1.00
30069;DHT22;16894;49.456;10.644;2023-10-31T03:28:06;10.40;1.00
30069;DHT22;16894;49.456;10.644;2023-10-31T03:30:33;10.40;1.00
30069;DHT22;16894;49.456;10.644;2023-10-31T03:32:59;10.30;1.00
30069;DHT22;16894;49.456;10.644;2023-10-31T03:35:24;10.30;99.90
30069;DHT22;16894;49.456;10.644;2023-10-31T03:37:50;10.20;1.00
30069;DHT22;16894;49.456;10.644;2023-10-31T03:40:34;10.20;1.00
30069;DHT22;16894;49.456;10.644;2023-10-31T03:43:19;10.20;1.00
30069;DHT22;16894;49.456;10.644;2023-10-31T03:45:46;10.10;1.00
30069;DHT22;16894;49.456;10.644;2023-10-31T03:48:12;10.10;1.00
30069;DHT22;16894;49.456;10.644;2023-10-31T03:50:38;10.10;1.00
30069;DHT22;16894;49.456;10.644;2023-10-31T03:53:04;10.10;1.00
30069;DHT22;16894;49.456;10.644;2023-10-31T03:55:29;10.10;1.00
30069;DHT22;16894;49.456;10.644;2023-10-31T03:57:56;10.00;1.00
30069;DHT22;16894;49.456;10.644;2023-10-31T04:00:22;10.00;1.00
30069;DHT22;16894;49.456;10.644;2023-10-31T04:02:47;10.00;1.00
30069;DHT22;16894;49.456;10.644;2023-10-31T04:05:13;10.00;1.00
30069;DHT22;16894;49.456;10.644;2023-10-31T04:07:39;10.00;1.00
30069;DHT22;16894;49.456;10.644;2023-10-31T04:10:05;9.90;1.00
30069;DHT22;16894;49.456;10.644;2023-10-31T04:12:32;9.90;1.00
30069;DHT22;16894;49.456;10.644;2023-10-31T04:14:58;9.90;1.00
30069;DHT22;16894;49.456;10.644;2023-10-31T04:17:25;10.00;1.00
30069;DHT22;16894;49.456;10.644;2023-10-31T04:19:51;9.90;1.00
30069;DHT22;16894;49.456;10.644;2023-10-31T04:22:16;9.90;1.00
30069;DHT22;16894;49.456;10.644;2023-10-31T04:24:42;9.90;1.00
30069;DHT22;16894;49.456;10.644;2023-10-31T04:27:08;9.90;1.00
30069;DHT22;16894;49.456;10.644;2023-10-31T04:29:34;9.80;1.00
30069;DHT22;16894;49.456;10.644;2023-10-31T04:32:00;9.80;1.00
30069;DHT22;16894;49.456;10.644;2023-10-31T04:34:26;9.80;1.00
30069;DHT22;16894;49.456;10.644;2023-10-31T04:36:51;9.80;1.00
30069;DHT22;16894;49.456;10.644;2023-10-31T04:39:17;9.80;1.00
30069;DHT22;16894;49.456;10.644;2023-10-31T04:41:43;9.70;1.00
30069;DHT22;16894;49.456;10.644;2023-10-31T04:44:08;9.70;1.00
30069;DHT22;16894;49.456;10.644;2023-10-31T04:46:34;9.70;1.00
30069;DHT22;16894;49.456;10.644;2023-10-31T04:48:59;9.70;1.00
30069;DHT22;16894;49.456;10.644;2023-10-31T04:51:25;9.70;1.00
30069;DHT22;16894;49.456;10.644;2023-10-31T04:53:51;9.70;1.00
30069;DHT22;16894;49.456;10.644;2023-10-31T04:56:17;9.70;99.90
30069;DHT22;16894;49.456;10.644;2023-10-31T04:58:43;9.70;99.90
30069;DHT22;16894;49.456;10.644;2023-10-31T05:01:09;9.70;99.90
30069;DHT22;16894;49.456;10.644;2023-10-31T05:03:35;9.70;1.00
30069;DHT22;16894;49.456;10.644;2023-10-31T05:06:00;9.60;99.90
30069;DHT22;16894;49.456;10.644;2023-10-31T05:08:26;9.60;99.90
30069;DHT22;16894;49.456;10.644;2023-10-31T05:11:10;9.60;99.90
30069;DHT22;16894;49.456;10.644;2023-10-31T05:13:39;9.60;99.90
30069;DHT22;16894;49.456;10.644;2023-10-31T05:16:05;9.60;1.00
30069;DHT22;16894;49.456;10.644;2023-10-31T05:18:31;9.60;99.90
30069;DHT22;16894;49.456;10.644;2023-10-31T05:20:56;9.50;99.90
30069;DHT22;16894;49.456;10.644;2023-10-31T05:23:22;9.60;1.00
30069;DHT22;16894;49.456;10.644;2023-10-31T05:25:47;9.60;99.90
30069;DHT22;16894;49.456;10.644;2023-10-31T05:28:13;9.60;99.90
30069;DHT22;16894;49.456;10.644;2023-10-31T05:30:39;9.60;99.90
30069;DHT22;16894;49.456;10.644;2023-10-31T05:33:05;9.60;99.90
30069;DHT22;16894;49.456;10.644;2023-10-31T05:35:31;9.60;99.90
30069;DHT22;16894;49.456;10.644;2023-10-31T05:37:56;9.60;99.90
30069;DHT22;16894;49.456;10.644;2023-10-31T05:40:22;9.60;99.90
30069;DHT22;16894;49.456;10.644;2023-10-31T05:42:50;9.70;99.90
30069;DHT22;16894;49.456;10.644;2023-10-31T05:45:16;9.60;99.90
30069;DHT22;16894;49.456;10.644;2023-10-31T05:47:42;9.60;99.90
30069;DHT22;16894;49.456;10.644;2023-10-31T05:50:08;9.60;99.90
30069;DHT22;16894;49.456;10.644;2023-10-31T05:52:34;9.60;99.90
30069;DHT22;16894;49.456;10.644;2023-10-31T05:55:00;9.60;99.90
30069;DHT22;16894;49.456;10.644;2023-10-31T05:57:32;9.70;99.90
30069;DHT22;16894;49.456;10.644;2023-10-31T06:00:01;9.70;99.90
30069;DHT22;16894;49.456;10.644;2023-10-31T06:02:27;9.70;99.90
30069;DHT22;16894;49.456;10.644;2023-10-31T06:04:52;9.70;99.90
30069;DHT22;16894;49.456;10.644;2023-10-31T06:07:18;9.70;99.90
30069;DHT22;16894;49.456;10.644;2023-10-31T06:09:44;9.70;99.90
30069;DHT22;16894;49.456;10.644;2023-10-31T06:12:10;9.70;99.90
30069;DHT22;16894;49.456;10.644;2023-10-31T06:14:36;9.70;99.90
30069;DHT22;16894;49.456;10.644;2023-10-31T06:17:02;9.80;99.90
30069;DHT22;16894;49.456;10.644;2023-10-31T06:19:27;9.80;99.90
30069;DHT22;16894;49.456;10.644;2023-10-31T06:21:53;9.80;99.90
30069;DHT22;16894;49.456;10.644;2023-10-31T06:24:19;9.80;99.90
30069;DHT22;16894;49.456;10.644;2023-10-31T06:26:44;9.80;99.90
30069;DHT22;16894;49.456;10.644;2023-10-31T06:29:10;9.80;99.90
30069;DHT22;16894;49.456;10.644;2023-10-31T06:31:36;9.80;99.90
30069;DHT22;16894;49.456;10.644;2023-10-31T06:34:01;9.80;99.90
30069;DHT22;16894;49.456;10.644;2023-10-31T06:36:28;9.90;99.90
30069;DHT22;16894;49.456;10.644;2023-10-31T06:38:54;9.90;99.90
30069;DHT22;16894;49.456;10.644;2023-10-31T06:41:19;9.90;99.90
30069;DHT22;16894;49.456;10.644;2023-10-31T06:43:45;9.90;99.90
30069;DHT22;16894;49.456;10.644;2023-10-31T06:46:11;10.00;99.90
30069;DHT22;16894;49.456;10.644;2023-10-31T06:48:36;10.00;99.90
30069;DHT22;16894;49.456;10.644;2023-10-31T06:51:02;10.00;99.90
30069;DHT22;16894;49.456;10.644;2023-10-31T06:53:28;10.00;99.90
30069;DHT22;16894;49.456;10.644;2023-10-31T06:55:53;10.00;99.90
30069;DHT22;16894;49.456;10.644;2023-10-31T06:58:19;10.00;99.90
30069;DHT22;16894;49.456;10.644;2023-10-31T07:00:45;10.00;99.90
30069;DHT22;16894;49.456;10.644;2023-10-31T07:03:10;10.00;99.90
30069;DHT22;16894;49.456;10.644;2023-10-31T07:05:41;10.00;99.90
30069;DHT22;16894;49.456;10.644;2023-10-31T07:08:07;9.90;99.90
30069;DHT22;16894;49.456;10.644;2023-10-31T07:10:33;10.00;99.90
30069;DHT22;16894;49.456;10.644;2023-10-31T07:13:02;10.00;99.90
30069;DHT22;16894;49.456;10.644;2023-10-31T07:15:28;10.00;99.90
30069;DHT22;16894;49.456;10.644;2023-10-31T07:17:53;10.00;99.90
30069;DHT22;16894;49.456;10.644;2023-10-31T07:20:19;10.00;99.90
30069;DHT22;16894;49.456;10.644;2023-10-31T07:22:45;10.10;99.90
30069;DHT22;16894;49.456;10.644;2023-10-31T07:25:11;10.10;99.90
30069;DHT22;16894;49.456;10.644;2023-10-31T07:27:37;10.10;99.90
30069;DHT22;16894;49.456;10.644;2023-10-31T07:30:03;10.10;99.90
30069;DHT22;16894;49.456;10.644;2023-10-31T07:32:30;10.10;99.90
30069;DHT22;16894;49.456;10.644;2023-10-31T07:34:55;10.10;99.90
30069;DHT22;16894;49.456;10.644;2023-10-31T07:37:21;10.10;99.90
30069;DHT22;16894;49.456;10.644;2023-10-31T07:39:46;10.20;99.90
30069;DHT22;16894;49.456;10.644;2023-10-31T07:42:12;10.20;99.90
30069;DHT22;16894;49.456;10.644;2023-10-31T07:44:38;10.20;99.90
30069;DHT22;16894;49.456;10.644;2023-10-31T07:47:05;10.20;99.90
30069;DHT22;16894;49.456;10.644;2023-10-31T07:49:30;10.30;99.90
30069;DHT22;16894;49.456;10.644;2023-10-31T07:51:56;10.30;99.90
30069;DHT22;16894;49.456;10.644;2023-10-31T07:54:22;10.40;84.60
30069;DHT22;16894;49.456;10.644;2023-10-31T07:56:48;10.40;73.10
30069;DHT22;16894;49.456;10.644;2023-10-31T07:59:13;10.50;45.60
30069;DHT22;16894;49.456;10.644;2023-10-31T08:01:39;10.50;58.70
30069;DHT22;16894;49.456;10.644;2023-10-31T08:04:05;10.50;43.40
30069;DHT22;16894;49.456;10.644;2023-10-31T08:06:31;10.50;1.00
30069;DHT22;16894;49.456;10.644;2023-10-31T08:08:57;10.50;42.80
30069;DHT22;16894;49.456;10.644;2023-10-31T08:11:23;10.40;1.00
30069;DHT22;16894;49.456;10.644;2023-10-31T08:13:48;10.40;14.40
30069;DHT22;16894;49.456;10.644;2023-10-31T08:16:18;10.40;79.50
30069;DHT22;16894;49.456;10.644;2023-10-31T08:18:48;10.50;23.80
30069;DHT22;16894;49.456;10.644;2023-10-31T08:21:14;10.50;99.90
30069;DHT22;16894;49.456;10.644;2023-10-31T08:23:40;10.50;99.90
30069;DHT22;16894;49.456;10.644;2023-10-31T08:26:06;10.60;98.40
30069;DHT22;16894;49.456;10.644;2023-10-31T08:28:31;10.60;82.50
30069;DHT22;16894;49.456;10.644;2023-10-31T08:30:57;10.60;1.00
30069;DHT22;16894;49.456;10.644;2023-10-31T08:33:23;10.60;44.20
30069;DHT22;16894;49.456;10.644;2023-10-31T08:35:49;10.60;48.40
30069;DHT22;16894;49.456;10.644;2023-10-31T08:38:17;10.70;16.30
30069;DHT22;16894;49.456;10.644;2023-10-31T08:40:43;10.70;99.90
30069;DHT22;16894;49.456;10.644;2023-10-31T08:43:08;10.70;99.90
30069;DHT22;16894;49.456;10.644;2023-10-31T08:45:35;10.60;99.90
30069;DHT22;16894;49.456;10.644;2023-10-31T08:48:01;10.50;99.90
30069;DHT22;16894;49.456;10.644;2023-10-31T08:50:45;10.40;99.90
30069;DHT22;16894;49.456;10.644;2023-10-31T08:53:11;10.20;1.00
30069;DHT22;16894;49.456;10.644;2023-10-31T08:55:38;10.10;1.00
30069;DHT22;16894;49.456;10.644;2023-10-31T08:58:04;10.00;1.00
30069;DHT22;16894;49.456;10.644;2023-10-31T09:00:29;9.90;1.00
30069;DHT22;16894;49.456;10.644;2023-10-31T09:02:55;9.80;6.60
30069;DHT22;16894;49.456;10.644;2023-10-31T09:05:20;9.80;5.20
30069;DHT22;16894;49.456;10.644;2023-10-31T09:07:46;9.80;8.70
30069;DHT22;16894;49.456;10.644;2023-10-31T09:10:31;9.90;7.80
30069;DHT22;16894;49.456;10.644;2023-10-31T09:13:15;9.90;1.00
30069;DHT22;16894;49.456;10.644;2023-10-31T09:15:41;9.80;1.00
30069;DHT22;16894;49.456;10.644;2023-10-31T09:18:07;9.90;1.00
30069;DHT22;16894;49.456;10.644;2023-10-31T09:20:33;10.00;1.00
30069;DHT22;16894;49.456;10.644;2023-10-31T09:22:58;10.00;1.00
30069;DHT22;16894;49.456;10.644;2023-10-31T09:25:24;10.10;1.00
30069;DHT22;16894;49.456;10.644;2023-10-31T09:27:50;10.20;1.00
30069;DHT22;16894;49.456;10.644;2023-10-31T09:30:15;10.20;1.00
30069;DHT22;16894;49.456;10.644;2023-10-31T09:32:41;10.30;1.00
30069;DHT22;16894;49.456;10.644;2023-10-31T09:35:07;10.30;99.90
30069;DHT22;16894;49.456;10.644;2023-10-31T09:37:33;10.30;99.90
30069;DHT22;16894;49.456;10.644;2023-10-31T09:39:59;10.30;99.90
30069;DHT22;16894;49.456;10.644;2023-10-31T09:42:25;10.30;99.90
30069;DHT22;16894;49.456;10.644;2023-10-31T09:44:51;10.20;99.90
30069;DHT22;16894;49.456;10.644;2023-10-31T09:47:16;10.20;99.90
30069;DHT22;16894;49.456;10.644;2023-10-31T09:49:43;10.20;99.90
30069;DHT22;16894;49.456;10.644;2023-10-31T09:52:10;10.30;99.90
30069;DHT22;16894;49.456;10.644;2023-10-31T09:54:37;10.40;99.90
30069;DHT22;16894;49.456;10.644;2023-10-31T09:57:04;10.40;99.90
30069;DHT22;16894;49.456;10.644;2023-10-31T09:59:30;10.40;99.90
30069;DHT22;16894;49.456;10.644;2023-10-31T10:01:56;10.50;99.90
30069;DHT22;16894;49.456;10.644;2023-10-31T10:04:21;10.50;99.90
30069;DHT22;16894;49.456;10.644;2023-10-31T10:07:01;10.60;99.90
30069;DHT22;16894;49.456;10.644;2023-10-31T10:09:28;10.80;99.90
30069;DHT22;16894;49.456;10.644;2023-10-31T10:11:56;10.90;28.40
30069;DHT22;16894;49.456;10.644;2023-10-31T10:14:25;10.90;1.00
30069;DHT22;16894;49.456;10.644;2023-10-31T10:16:54;10.90;1.00
30069;DHT22;16894;49.456;10.644;2023-10-31T10:19:22;11.00;19.00
30069;DHT22;16894;49.456;10.644;2023-10-31T10:21:48;11.00;99.90
30069;DHT22;16894;49.456;10.644;2023-10-31T10:24:15;11.10;99.90
30069;DHT22;16894;49.456;10.644;2023-10-31T10:26:40;11.20;91.00
30069;DHT22;16894;49.456;10.644;2023-10-31T10:29:06;11.30;99.90
30069;DHT22;16894;49.456;10.644;2023-10-31T10:31:32;11.20;1.00
30069;DHT22;16894;49.456;10.644;2023-10-31T10:33:58;11.30;99.90
30069;DHT22;16894;49.456;10.644;2023-10-31T10:36:25;11.30;99.90
30069;DHT22;16894;49.456;10.644;2023-10-31T10:38:56;11.40;97.70
30069;DHT22;16894;49.456;10.644;2023-10-31T10:41:28;11.50;99.90
30069;DHT22;16894;49.456;10.644;2023-10-31T10:44:06;11.70;99.90
30069;DHT22;16894;49.456;10.644;2023-10-31T10:46:35;11.70;99.90
30069;DHT22;16894;49.456;10.644;2023-10-31T10:49:06;11.90;90.70
30069;DHT22;16894;49.456;10.644;2023-10-31T10:51:45;11.90;99.90
30069;DHT22;16894;49.456;10.644;2023-10-31T10:54:19;12.00;94.10
30069;DHT22;16894;49.456;10.644;2023-10-31T10:57:08;11.90;1.00
30069;DHT22;16894;49.456;10.644;2023-10-31T10:59:43;12.00;99.90
30069;DHT22;16894;49.456;10.644;2023-10-31T11:02:14;11.90;99.90
30069;DHT22;16894;49.456;10.644;2023-10-31T11:04:42;12.00;1.00
30069;DHT22;16894;49.456;10.644;2023-10-31T11:07:08;12.00;32.00
30069;DHT22;16894;49.456;10.644;2023-10-31T11:09:34;12.10;99.90
30069;DHT22;16894;49.456;10.644;2023-10-31T11:12:02;12.10;99.90
30069;DHT22;16894;49.456;10.644;2023-10-31T11:14:29;12.20;82.90
30069;DHT22;16894;49.456;10.644;2023-10-31T11:17:00;12.20;96.80
30069;DHT22;16894;49.456;10.644;2023-10-31T11:19:28;12.20;1.00
30069;DHT22;16894;49.456;10.644;2023-10-31T11:21:54;12.20;99.90
30069;DHT22;16894;49.456;10.644;2023-10-31T11:24:22;12.20;1.00
30069;DHT22;16894;49.456;10.644;2023-10-31T11:26:58;12.10;1.00
30069;DHT22;16894;49.456;10.644;2023-10-31T11:29:25;12.10;1.00
30069;DHT22;16894;49.456;10.644;2023-10-31T11:31:51;12.00;1.00
30069;DHT22;16894;49.456;10.644;2023-10-31T11:34:19;12.00;99.90
30069;DHT22;16894;49.456;10.644;2023-10-31T11:36:46;11.90;52.10
30069;DHT22;16894;49.456;10.644;2023-10-31T11:39:21;11.90;99.90
30069;DHT22;16894;49.456;10.644;2023-10-31T11:41:54;12.00;99.90
30069;DHT22;16894;49.456;10.644;2023-10-31T11:44:25;12.00;1.00
30069;DHT22;16894;49.456;10.644;2023-10-31T11:46:52;12.00;1.00
30069;DHT22;16894;49.456;10.644;2023-10-31T11:49:45;12.10;99.90
30069;DHT22;16894;49.456;10.644;2023-10-31T11:52:17;12.10;1.00
30069;DHT22;16894;49.456;10.644;2023-10-31T11:54:43;12.20;99.90
30069;DHT22;16894;49.456;10.644;2023-10-31T11:57:09;12.20;1.00
30069;DHT22;16894;49.456;10.644;2023-10-31T11:59:39;12.20;99.90
30069;DHT22;16894;49.456;10.644;2023-10-31T12:02:15;12.20;99.90
30069;DHT22;16894;49.456;10.644;2023-10-31T12:04:41;12.20;8.60
30069;DHT22;16894;49.456;10.644;2023-10-31T12:07:06;12.20;99.90
30069;DHT22;16894;49.456;10.644;2023-10-31T12:09:32;12.10;99.90
30069;DHT22;16894;49.456;10.644;2023-10-31T12:11:58;12.10;99.90
30069;DHT22;16894;49.456;10.644;2023-10-31T12:14:23;12.10;99.90
30069;DHT22;16894;49.456;10.644;2023-10-31T12:16:49;12.10;99.90
30069;DHT22;16894;49.456;10.644;2023-10-31T12:19:15;12.30;99.90
30069;DHT22;16894;49.456;10.644;2023-10-31T12:24:16;13.10;99.90
30069;DHT22;16894;49.456;10.644;2023-10-31T12:26:43;13.10;99.90
30069;DHT22;16894;49.456;10.644;2023-10-31T12:29:20;13.00;90.90
30069;DHT22;16894;49.456;10.644;2023-10-31T12:31:48;13.00;1.00
30069;DHT22;16894;49.456;10.644;2023-10-31T12:34:15;13.40;99.90
30069;DHT22;16894;49.456;10.644;2023-10-31T12:36:42;14.50;99.90
30069;DHT22;16894;49.456;10.644;2023-10-31T12:39:11;14.90;99.00
30069;DHT22;16894;49.456;10.644;2023-10-31T12:41:38;14.70;99.90
30069;DHT22;16894;49.456;10.644;2023-10-31T12:44:05;14.40;99.90
30069;DHT22;16894;49.456;10.644;2023-10-31T12:46:32;14.30;99.90
30069;DHT22;16894;49.456;10.644;2023-10-31T12:48:57;13.80;99.90
30069;DHT22;16894;49.456;10.644;2023-10-31T12:51:24;13.40;99.90
30069;DHT22;16894;49.456;10.644;2023-10-31T12:53:51;13.20;1.00
30069;DHT22;16894;49.456;10.644;2023-10-31T12:59:05;13.10;1.00
30069;DHT22;16894;49.456;10.644;2023-10-31T13:01:34;13.00;21.40
30069;DHT22;16894;49.456;10.644;2023-10-31T13:04:01;12.90;17.80
30069;DHT22;16894;49.456;10.644;2023-10-31T13:06:27;12.80;2.60
30069;DHT22;16894;49.456;10.644;2023-10-31T13:08:58;12.60;28.90
30069;DHT22;16894;49.456;10.644;2023-10-31T13:11:23;12.50;39.70
30069;DHT22;16894;49.456;10.644;2023-10-31T13:13:54;12.50;1.00
30069;DHT22;16894;49.456;10.644;2023-10-31T13:16:20;12.50;99.90
30069;DHT22;16894;49.456;10.644;2023-10-31T13:18:46;12.90;99.90
30069;DHT22;16894;49.456;10.644;2023-10-31T13:21:12;13.20;99.90
30069;DHT22;16894;49.456;10.644;2023-10-31T13:23:41;13.40;99.90
30069;DHT22;16894;49.456;10.644;2023-10-31T13:26:11;13.60;1.00
30069;DHT22;16894;49.456;10.644;2023-10-31T13:28:37;14.10;99.60
30069;DHT22;16894;49.456;10.644;2023-10-31T13:31:05;14.40;1.00
30069;DHT22;16894;49.456;10.644;2023-10-31T13:33:31;15.30;99.90
30069;DHT22;16894;49.456;10.644;2023-10-31T13:35:56;16.20;99.90
30069;DHT22;16894;49.456;10.644;2023-10-31T13:38:22;16.40;99.90
30069;DHT22;16894;49.456;10.644;2023-10-31T13:40:48;16.50;68.00
30069;DHT22;16894;49.456;10.644;2023-10-31T13:43:14;16.30;80.50
30069;DHT22;16894;49.456;10.644;2023-10-31T13:45:40;16.30;99.90
30069;DHT22;16894;49.456;10.644;2023-10-31T13:48:05;16.30;99.90
30069;DHT22;16894;49.456;10.644;2023-10-31T13:50:31;15.90;62.40
30069;DHT22;16894;49.456;10.644;2023-10-31T13:52:57;15.30;47.20
30069;DHT22;16894;49.456;10.644;2023-10-31T13:55:42;14.50;1.00
30069;DHT22;16894;49.456;10.644;2023-10-31T13:58:09;14.20;1.80
30069;DHT22;16894;49.456;10.644;2023-10-31T14:00:35;13.80;50.90
30069;DHT22;16894;49.456;10.644;2023-10-31T14:03:01;13.50;3.10
30069;DHT22;16894;49.456;10.644;2023-10-31T14:05:27;13.20;99.90
30069;DHT22;16894;49.456;10.644;2023-10-31T14:07:53;13.00;99.90
30069;DHT22;16894;49.456;10.644;2023-10-31T14:10:19;12.80;99.90
30069;DHT22;16894;49.456;10.644;2023-10-31T14:12:48;12.80;99.90
30069;DHT22;16894;49.456;10.644;2023-10-31T14:15:14;12.80;1.00
30069;DHT22;16894;49.456;10.644;2023-10-31T14:17:39;12.70;1.00
30069;DHT22;16894;49.456;10.644;2023-10-31T14:20:06;12.60;1.00
30069;DHT22;16894;49.456;10.644;2023-10-31T14:22:32;12.60;59.70
30069;DHT22;16894;49.456;10.644;2023-10-31T14:24:58;12.50;99.90
30069;DHT22;16894;49.456;10.644;2023-10-31T14:27:24;12.30;99.90
30069;DHT22;16894;49.456;10.644;2023-10-31T14:29:50;12.30;99.90
30069;DHT22;16894;49.456;10.644;2023-10-31T14:32:16;12.30;99.90
30069;DHT22;16894;49.456;10.644;2023-10-31T14:34:45;12.20;99.90
30069;DHT22;16894;49.456;10.644;2023-10-31T14:37:12;12.20;99.90
30069;DHT22;16894;49.456;10.644;2023-10-31T14:39:38;12.10;1.00
30069;DHT22;16894;49.456;10.644;2023-10-31T14:42:06;12.10;99.90
30069;DHT22;16894;49.456;10.644;2023-10-31T14:44:32;12.10;43.80
30069;DHT22;16894;49.456;10.644;2023-10-31T14:46:58;12.10;99.90
30069;DHT22;16894;49.456;10.644;2023-10-31T14:49:25;12.10;99.90
30069;DHT22;16894;49.456;10.644;2023-10-31T14:51:50;12.10;1.00
30069;DHT22;16894;49.456;10.644;2023-10-31T14:54:16;12.10;99.90
30069;DHT22;16894;49.456;10.644;2023-10-31T14:56:42;12.10;1.00
30069;DHT22;16894;49.456;10.644;2023-10-31T14:59:07;12.10;99.90
30069;DHT22;16894;49.456;10.644;2023-10-31T15:01:33;12.00;99.90
30069;DHT22;16894;49.456;10.644;2023-10-31T15:03:59;11.90;17.70
30069;DHT22;16894;49.456;10.644;2023-10-31T15:06:24;11.90;99.90
30069;DHT22;16894;49.456;10.644;2023-10-31T15:08:50;11.80;99.90
30069;DHT22;16894;49.456;10.644;2023-10-31T15:11:19;11.80;1.00
30069;DHT22;16894;49.456;10.644;2023-10-31T15:13:45;11.80;99.90
30069;DHT22;16894;49.456;10.644;2023-10-31T15:16:11;11.80;99.90
30069;DHT22;16894;49.456;10.644;2023-10-31T15:18:37;11.70;99.90
30069;DHT22;16894;49.456;10.644;2023-10-31T15:21:02;11.70;99.90
30069;DHT22;16894;49.456;10.644;2023-10-31T15:23:28;11.60;99.90
30069;DHT22;16894;49.456;10.644;2023-10-31T15:25:56;11.60;99.90